Time;durP1;ratioP1;P1;durP2;ratioP2;P2;SDS_P1;SDS_P2;PMS_P1;PMS_P2;Temp;Humidity;BMP_temperature;BMP_pressure;BME280_temperature;BME280_humidity;BME280_pressure;Samples;Min_cycle;Max_cycle;Signal;HPM_P1;HPM_P2
2020/12/13 00:01:41;;;;;;;20.77;13.00;;;8.40;56.00;;;;;;5052590;28;20021;-75
2020/12/13 00:04:07;;;;;;;18.48;12.05;;;8.40;56.00;;;;;;5051401;28;20488;-75
2020/12/13 00:06:34;;;;;;;20.40;13.23;;;8.40;56.00;;;;;;5035876;28;20022;-75
2020/12/13 00:09:00;;;;;;;22.25;15.20;;;8.40;56.10;;;;;;5062063;28;20025;-75
2020/12/13 00:11:26;;;;;;;21.73;13.48;;;8.40;56.10;;;;;;5052557;28;20029;-75
2020/12/13 00:13:53;;;;;;;19.13;13.25;;;8.40;56.00;;;;;;5039294;28;20053;-76
2020/12/13 00:16:19;;;;;;;22.02;13.88;;;8.40;56.10;;;;;;5063086;28;20043;-75
2020/12/13 00:18:45;;;;;;;22.20;13.93;;;8.40;56.10;;;;;;5052566;28;20020;-75
2020/12/13 00:21:15;;;;;;;19.52;12.70;;;8.40;56.20;;;;;;5045089;28;20108;-75
2020/12/13 00:23:46;;;;;;;20.52;13.43;;;8.40;56.20;;;;;;5042951;28;20458;-75
2020/12/13 00:26:13;;;;;;;21.70;13.48;;;8.40;56.30;;;;;;5039034;28;20033;-75
2020/12/13 00:28:39;;;;;;;18.42;12.18;;;8.40;56.30;;;;;;5051461;28;20030;-75
2020/12/13 00:31:05;;;;;;;22.42;13.45;;;8.40;56.90;;;;;;5053009;28;20020;-75
2020/12/13 00:33:31;;;;;;;17.98;12.20;;;8.40;56.30;;;;;;5056060;28;20032;-75
2020/12/13 00:35:57;;;;;;;20.13;13.27;;;8.40;56.40;;;;;;5040815;28;20144;-75
2020/12/13 00:38:23;;;;;;;20.65;13.52;;;8.40;56.40;;;;;;5052629;28;20023;-75
2020/12/13 00:40:51;;;;;;;22.63;14.32;;;8.40;56.30;;;;;;5039458;28;20086;-75
2020/12/13 00:43:18;;;;;;;19.23;12.63;;;8.40;56.40;;;;;;5058357;28;20025;-75
2020/12/13 00:45:44;;;;;;;23.45;13.93;;;8.30;56.40;;;;;;5055846;28;20044;-75
2020/12/13 00:48:10;;;;;;;19.48;13.38;;;8.40;56.60;;;;;;5038952;28;20030;-75
2020/12/13 00:50:40;;;;;;;20.42;13.52;;;8.40;56.70;;;;;;5052361;28;20064;-75
2020/12/13 00:53:07;;;;;;;19.63;12.70;;;8.40;56.80;;;;;;5043009;28;20378;-75
2020/12/13 00:55:33;;;;;;;19.52;12.80;;;8.30;56.70;;;;;;5045009;28;20032;-75
2020/12/13 00:58:00;;;;;;;22.48;13.25;;;8.40;56.80;;;;;;5050079;28;20497;-75
2020/12/13 01:00:27;;;;;;;23.77;14.23;;;8.40;56.90;;;;;;5055630;28;20029;-75
2020/12/13 01:02:57;;;;;;;20.63;13.25;;;8.30;56.90;;;;;;5055734;28;20029;-75
2020/12/13 01:05:24;;;;;;;19.88;13.05;;;8.40;56.90;;;;;;5045028;28;20029;-75
2020/12/13 01:07:50;;;;;;;19.42;12.50;;;8.30;56.90;;;;;;5048613;28;20021;-75
2020/12/13 01:10:17;;;;;;;18.00;12.05;;;8.40;56.90;;;;;;5038978;28;20044;-75
2020/12/13 01:12:43;;;;;;;18.40;12.52;;;8.40;56.80;;;;;;5051606;28;20029;-75
2020/12/13 01:15:09;;;;;;;19.33;12.45;;;8.40;56.90;;;;;;5042804;28;20037;-75
2020/12/13 01:17:35;;;;;;;20.80;12.82;;;8.40;56.90;;;;;;5050660;28;20024;-75
2020/12/13 01:20:02;;;;;;;18.85;12.52;;;8.40;57.00;;;;;;5055383;28;20033;-75
2020/12/13 01:22:28;;;;;;;18.92;12.45;;;8.40;56.90;;;;;;5055269;28;20417;-75
2020/12/13 01:24:53;;;;;;;18.15;12.45;;;8.40;57.00;;;;;;5055183;28;20036;-75
2020/12/13 01:27:19;;;;;;;18.30;11.60;;;8.40;57.00;;;;;;5055202;28;20021;-75
2020/12/13 01:29:45;;;;;;;18.58;11.85;;;8.40;56.90;;;;;;5054967;28;20028;-75
2020/12/13 01:32:10;;;;;;;18.58;12.20;;;8.40;57.40;;;;;;5055173;28;20031;-75
2020/12/13 01:34:36;;;;;;;24.58;13.88;;;8.40;56.80;;;;;;5051451;28;20021;-75
2020/12/13 01:37:02;;;;;;;17.85;12.55;;;8.40;56.80;;;;;;5046215;28;20024;-75
2020/12/13 01:39:30;;;;;;;21.67;14.35;;;8.40;56.80;;;;;;5064829;28;20526;-75
2020/12/13 01:41:58;;;;;;;21.20;13.98;;;8.40;56.70;;;;;;5039731;28;20029;-75
2020/12/13 01:44:30;;;;;;;19.35;12.07;;;8.40;56.70;;;;;;5052547;28;20028;-75
2020/12/13 01:46:56;;;;;;;17.20;11.27;;;8.40;56.60;;;;;;5054528;28;20104;-75
2020/12/13 01:49:24;;;;;;;18.92;12.43;;;8.40;56.60;;;;;;5044334;28;20036;-75
2020/12/13 01:54:19;;;;;;;18.38;10.63;;;8.40;56.70;;;;;;5050235;28;20043;-75
2020/12/13 01:56:48;;;;;;;20.13;13.07;;;8.40;56.80;;;;;;5054591;28;20034;-75
2020/12/13 01:59:19;;;;;;;18.17;11.98;;;8.40;56.80;;;;;;5053368;28;20382;-74
2020/12/13 02:01:49;;;;;;;17.27;11.40;;;8.40;56.90;;;;;;5042195;28;20029;-75
2020/12/13 02:04:22;;;;;;;21.45;13.48;;;8.40;56.90;;;;;;5051049;28;20025;-75
2020/12/13 02:06:53;;;;;;;18.63;12.02;;;8.40;56.90;;;;;;5038975;28;20091;-75
2020/12/13 02:09:23;;;;;;;19.00;11.50;;;8.40;56.80;;;;;;5054493;28;20116;-75
2020/12/13 02:11:49;;;;;;;19.48;12.48;;;8.50;56.90;;;;;;5041723;28;20123;-75
2020/12/13 02:14:15;;;;;;;19.33;12.02;;;8.40;57.00;;;;;;5050922;28;20044;-75
2020/12/13 02:16:45;;;;;;;19.00;11.88;;;8.40;57.00;;;;;;5062882;28;20489;-75
2020/12/13 02:19:15;;;;;;;19.27;12.02;;;8.40;57.10;;;;;;5054150;28;20466;-75
2020/12/13 02:21:45;;;;;;;20.63;13.57;;;8.50;57.20;;;;;;5042370;28;20033;-75
2020/12/13 02:24:12;;;;;;;21.67;12.88;;;8.50;57.20;;;;;;5056371;28;20410;-74
2020/12/13 02:26:40;;;;;;;18.67;11.75;;;8.50;57.20;;;;;;5050487;28;20112;-74
2020/12/13 02:29:06;;;;;;;21.75;13.35;;;8.50;57.20;;;;;;5040985;28;20094;-75
2020/12/13 02:31:32;;;;;;;23.65;14.93;;;8.50;57.20;;;;;;5052551;28;20029;-74
2020/12/13 02:33:58;;;;;;;19.35;12.52;;;8.50;57.10;;;;;;5053886;28;20025;-74
2020/12/13 02:36:24;;;;;;;21.15;13.63;;;8.50;57.20;;;;;;5037235;28;20486;-74
2020/12/13 02:38:49;;;;;;;18.15;11.70;;;8.50;57.20;;;;;;5049225;28;20018;-74
2020/12/13 02:41:15;;;;;;;19.63;13.00;;;8.50;57.30;;;;;;5042200;28;20488;-75
2020/12/13 02:43:41;;;;;;;20.27;13.63;;;8.50;57.30;;;;;;5042053;28;20467;-74
2020/12/13 02:46:06;;;;;;;19.25;13.48;;;8.60;57.30;;;;;;5047386;28;20123;-74
2020/12/13 02:48:32;;;;;;;20.65;13.20;;;8.60;57.30;;;;;;5036714;28;20510;-74
2020/12/13 02:50:58;;;;;;;22.55;13.57;;;8.60;57.20;;;;;;5046537;28;20171;-74
2020/12/13 02:53:23;;;;;;;21.65;13.90;;;8.60;57.20;;;;;;5042871;28;20028;-74
2020/12/13 02:55:49;;;;;;;20.50;13.23;;;8.60;57.20;;;;;;5050860;28;20070;-74
2020/12/13 02:58:15;;;;;;;21.45;12.63;;;8.60;57.30;;;;;;5052158;28;20031;-75
2020/12/13 03:00:40;;;;;;;20.83;13.45;;;8.60;57.20;;;;;;5037006;28;20021;-74
2020/12/13 03:03:06;;;;;;;21.55;13.65;;;8.60;57.20;;;;;;5052201;28;20031;-74
2020/12/13 03:05:32;;;;;;;26.67;15.95;;;8.60;57.80;;;;;;5042721;28;20482;-74
2020/12/13 03:07:58;;;;;;;23.52;13.23;;;8.60;57.30;;;;;;5047486;28;20021;-74
2020/12/13 03:10:24;;;;;;;20.45;13.18;;;8.60;57.20;;;;;;5036762;28;20578;-74
2020/12/13 03:12:50;;;;;;;19.17;12.43;;;8.60;57.30;;;;;;5048467;28;20084;-75
2020/12/13 03:15:15;;;;;;;20.00;12.85;;;8.60;57.30;;;;;;5041516;28;20071;-74
2020/12/13 03:17:41;;;;;;;21.00;13.85;;;8.60;57.30;;;;;;5040022;28;20557;-75
2020/12/13 03:20:07;;;;;;;20.17;13.63;;;8.60;57.40;;;;;;5048549;28;20021;-74
2020/12/13 03:22:33;;;;;;;19.63;13.40;;;8.60;57.40;;;;;;5036619;28;20032;-74
2020/12/13 03:24:59;;;;;;;18.67;13.20;;;8.60;57.50;;;;;;5046947;28;20053;-74
2020/12/13 03:27:25;;;;;;;20.65;13.93;;;8.60;57.50;;;;;;5042546;28;20378;-75
2020/12/13 03:29:51;;;;;;;22.25;14.10;;;8.60;57.60;;;;;;5045213;28;20531;-74
2020/12/13 03:32:17;;;;;;;23.30;14.77;;;8.70;57.60;;;;;;5053025;28;20104;-74
2020/12/13 03:34:43;;;;;;;24.88;15.55;;;8.70;57.70;;;;;;5049052;28;20060;-74
2020/12/13 03:37:09;;;;;;;21.42;14.25;;;8.70;57.80;;;;;;5040433;28;20114;-75
2020/12/13 03:39:34;;;;;;;21.70;14.43;;;8.70;57.80;;;;;;5041970;28;20029;-74
2020/12/13 03:42:00;;;;;;;20.95;13.88;;;8.60;57.90;;;;;;5047471;28;20028;-75
2020/12/13 03:44:26;;;;;;;24.00;14.95;;;8.70;58.00;;;;;;5036373;28;20022;-75
2020/12/13 03:46:51;;;;;;;22.67;14.75;;;8.60;58.10;;;;;;5047935;28;20021;-74
2020/12/13 03:49:17;;;;;;;23.42;14.90;;;8.60;58.10;;;;;;5041489;28;20025;-74
2020/12/13 03:51:43;;;;;;;22.13;13.85;;;8.60;58.10;;;;;;5039553;28;20441;-74
2020/12/13 03:54:08;;;;;;;25.02;15.38;;;8.60;58.20;;;;;;5047001;28;20404;-74
2020/12/13 03:56:34;;;;;;;27.02;16.92;;;8.60;58.30;;;;;;5052701;28;20017;-74
2020/12/13 03:59:00;;;;;;;23.52;15.63;;;8.60;58.30;;;;;;5049164;28;20025;-74
2020/12/13 04:01:26;;;;;;;29.17;18.20;;;8.60;58.30;;;;;;5046519;28;20025;-74
2020/12/13 04:03:52;;;;;;;24.98;15.52;;;8.60;58.30;;;;;;5042253;28;20033;-74
2020/12/13 04:06:18;;;;;;;27.30;16.60;;;8.60;58.30;;;;;;5053183;28;20032;-74
2020/12/13 04:08:44;;;;;;;29.13;17.48;;;8.60;58.30;;;;;;5040605;28;20074;-74
2020/12/13 04:11:11;;;;;;;26.13;16.98;;;8.50;58.30;;;;;;5048191;28;20391;-74
2020/12/13 04:13:36;;;;;;;29.25;16.70;;;8.50;58.30;;;;;;5046388;28;20032;-74
2020/12/13 04:16:02;;;;;;;23.42;14.82;;;8.50;58.40;;;;;;5041856;28;20025;-75
2020/12/13 04:18:28;;;;;;;23.55;15.95;;;8.50;58.30;;;;;;5052934;28;20140;-74
2020/12/13 04:20:53;;;;;;;21.55;14.63;;;8.60;58.40;;;;;;5041760;28;20032;-74
2020/12/13 04:23:19;;;;;;;21.90;14.50;;;8.50;58.30;;;;;;5047706;28;20459;-75
2020/12/13 04:25:45;;;;;;;24.88;15.23;;;8.60;58.40;;;;;;5048447;28;20122;-74
2020/12/13 04:28:12;;;;;;;20.90;13.73;;;8.60;58.40;;;;;;5040363;28;20036;-74
2020/12/13 04:30:38;;;;;;;24.25;15.82;;;8.60;58.40;;;;;;5054260;28;20033;-74
2020/12/13 04:33:06;;;;;;;27.95;18.20;;;8.60;58.60;;;;;;5056131;28;20091;-74
2020/12/13 04:35:32;;;;;;;26.75;18.23;;;8.60;58.70;;;;;;5050581;28;20070;-74
2020/12/13 04:37:57;;;;;;;27.92;17.48;;;8.50;58.60;;;;;;5071314;28;20016;-76
2020/12/13 04:40:23;;;;;;;25.50;16.70;;;8.50;58.50;;;;;;5055144;28;20056;-75
2020/12/13 04:42:50;;;;;;;30.58;19.50;;;8.50;58.40;;;;;;5055150;28;20107;-75
2020/12/13 04:45:17;;;;;;;27.35;17.45;;;8.50;58.60;;;;;;5056322;28;20023;-75
2020/12/13 04:48:09;;;;;;;22.88;14.45;;;8.40;58.70;;;;;;5056280;28;20029;-75
2020/12/13 04:50:37;;;;;;;25.58;15.80;;;8.40;58.90;;;;;;5053223;28;20166;-75
2020/12/13 04:53:06;;;;;;;21.98;14.35;;;8.40;59.00;;;;;;5056036;28;20021;-75
2020/12/13 04:55:41;;;;;;;27.52;16.42;;;8.40;59.10;;;;;;5054854;28;20104;-75
2020/12/13 04:58:12;;;;;;;23.15;14.82;;;8.40;59.20;;;;;;5056165;28;20442;-75
2020/12/13 05:00:42;;;;;;;24.38;15.75;;;8.40;59.30;;;;;;5056158;28;20021;-75
2020/12/13 05:03:15;;;;;;;23.65;14.90;;;8.40;59.50;;;;;;5056100;28;20052;-75
2020/12/13 05:05:42;;;;;;;21.50;14.65;;;8.40;59.70;;;;;;5055977;28;20040;-75
2020/12/13 05:08:08;;;;;;;21.75;14.98;;;8.40;59.70;;;;;;5055919;28;20029;-75
2020/12/13 05:10:38;;;;;;;22.88;14.20;;;8.40;59.80;;;;;;5054914;28;20394;-75
2020/12/13 05:13:06;;;;;;;23.95;14.35;;;8.40;59.80;;;;;;5055748;28;20059;-75
2020/12/13 05:15:36;;;;;;;23.15;15.00;;;8.40;59.90;;;;;;5055995;28;20147;-75
2020/12/13 05:18:03;;;;;;;27.15;15.15;;;8.40;59.90;;;;;;5056000;28;20021;-75
2020/12/13 05:20:29;;;;;;;22.05;14.38;;;8.40;60.00;;;;;;5055818;28;20020;-75
2020/12/13 05:22:57;;;;;;;20.75;14.02;;;8.40;60.80;;;;;;5055713;28;20024;-76
2020/12/13 05:25:39;;;;;;;39.85;16.25;;;8.40;60.00;;;;;;5055523;28;20055;-75
2020/12/13 05:28:09;;;;;;;26.17;16.70;;;8.40;60.10;;;;;;5055714;28;20429;-75
2020/12/13 05:30:42;;;;;;;29.95;17.15;;;8.50;60.00;;;;;;5055538;28;20470;-75
2020/12/13 05:33:19;;;;;;;28.80;18.08;;;8.50;59.90;;;;;;5055742;28;20028;-75
2020/12/13 05:35:45;;;;;;;25.17;16.23;;;8.40;59.80;;;;;;5055851;28;20039;-74
2020/12/13 05:38:16;;;;;;;28.30;17.50;;;8.40;59.80;;;;;;5055729;28;20100;-75
2020/12/13 05:40:42;;;;;;;25.83;16.17;;;8.50;59.90;;;;;;5055742;28;20378;-75
2020/12/13 05:43:17;;;;;;;24.48;14.93;;;8.50;59.80;;;;;;5055464;28;20025;-75
2020/12/13 05:51:56;;;;;;;27.58;16.80;;;8.50;59.80;;;;;;5038461;28;20128;-75
2020/12/13 05:53:55;;;;;;;26.05;16.60;;;8.50;59.90;;;;;;5050522;28;20497;-75
2020/12/13 05:56:24;;;;;;;25.48;15.75;;;8.50;59.70;;;;;;5053468;28;20051;-75
2020/12/13 05:58:51;;;;;;;27.65;17.65;;;8.50;59.70;;;;;;5053706;28;20021;-75
2020/12/13 06:01:23;;;;;;;24.95;16.08;;;8.50;59.70;;;;;;5054929;28;20021;-75
2020/12/13 06:03:51;;;;;;;21.52;14.30;;;8.50;59.70;;;;;;5055216;28;20021;-75
2020/12/13 06:06:23;;;;;;;26.50;15.88;;;8.50;59.80;;;;;;5054779;28;20063;-75
2020/12/13 06:08:59;;;;;;;33.08;18.17;;;8.50;59.80;;;;;;5054795;28;20492;-75
2020/12/13 06:11:37;;;;;;;28.80;15.82;;;8.50;59.80;;;;;;5054678;28;20108;-74
2020/12/13 06:14:17;;;;;;;32.53;18.63;;;8.50;59.80;;;;;;5054579;28;20021;-75
2020/12/13 06:16:44;;;;;;;26.98;16.48;;;8.50;59.70;;;;;;5054593;28;20031;-75
2020/12/13 06:19:12;;;;;;;25.95;16.95;;;8.50;59.60;;;;;;5054535;28;20023;-75
2020/12/13 06:21:39;;;;;;;30.08;17.13;;;8.50;59.60;;;;;;5054465;28;20052;-75
2020/12/13 06:24:07;;;;;;;24.60;15.60;;;8.50;59.60;;;;;;5054260;28;20045;-75
2020/12/13 06:26:34;;;;;;;33.17;18.65;;;8.50;59.60;;;;;;5054442;28;20025;-75
2020/12/13 06:29:02;;;;;;;29.30;17.35;;;8.50;59.70;;;;;;5054340;28;20027;-75
2020/12/13 06:31:28;;;;;;;28.75;17.95;;;8.50;59.70;;;;;;5054324;28;20025;-75
2020/12/13 06:33:54;;;;;;;29.80;18.33;;;8.60;59.60;;;;;;5054463;28;20108;-75
2020/12/13 06:36:24;;;;;;;31.58;19.20;;;8.50;59.60;;;;;;5054236;28;20104;-75
2020/12/13 06:38:53;;;;;;;26.38;17.00;;;8.60;59.70;;;;;;5052946;28;20020;-75
2020/12/13 06:41:22;;;;;;;25.65;15.18;;;8.50;59.60;;;;;;5054150;28;20025;-75
2020/12/13 06:43:54;;;;;;;29.50;17.50;;;8.50;59.60;;;;;;5054083;28;20021;-75
2020/12/13 06:46:21;;;;;;;35.47;19.70;;;8.60;59.70;;;;;;5054072;28;20024;-75
2020/12/13 06:48:47;;;;;;;32.90;20.02;;;8.50;59.50;;;;;;5054006;28;20029;-75
2020/12/13 06:51:31;;;;;;;29.58;17.35;;;8.60;59.50;;;;;;5053859;28;20029;-75
2020/12/13 06:53:58;;;;;;;27.20;16.87;;;8.60;59.60;;;;;;5053925;28;20478;-75
2020/12/13 06:56:25;;;;;;;26.45;16.60;;;8.60;59.50;;;;;;5053855;28;20021;-75
2020/12/13 06:58:56;;;;;;;26.50;15.02;;;8.60;59.60;;;;;;5053996;28;20104;-75
2020/12/13 07:01:24;;;;;;;33.20;19.20;;;8.60;59.60;;;;;;5054005;28;20017;-75
2020/12/13 07:03:51;;;;;;;32.15;19.85;;;8.60;59.80;;;;;;5054098;28;20035;-75
2020/12/13 07:06:22;;;;;;;29.05;18.35;;;8.60;59.80;;;;;;5053816;28;20462;-75
2020/12/13 07:08:53;;;;;;;38.10;21.42;;;8.60;59.80;;;;;;5053938;28;20029;-77
2020/12/13 07:11:21;;;;;;;37.08;22.92;;;8.60;59.80;;;;;;5054205;28;20017;-75
2020/12/13 07:13:48;;;;;;;33.80;19.30;;;8.60;59.90;;;;;;5053504;28;20025;-75
2020/12/13 07:16:40;;;;;;;33.83;20.98;;;8.60;59.90;;;;;;5053484;28;20494;-75
2020/12/13 07:19:08;;;;;;;35.15;20.05;;;8.60;59.90;;;;;;5053557;28;20021;-75
2020/12/13 07:21:35;;;;;;;32.20;20.33;;;8.60;59.90;;;;;;5053735;28;20021;-75
2020/12/13 07:24:01;;;;;;;33.30;21.58;;;8.60;60.00;;;;;;5053259;28;20440;-75
2020/12/13 07:26:29;;;;;;;32.90;20.33;;;8.60;60.00;;;;;;5052138;28;20055;-75
2020/12/13 07:28:57;;;;;;;28.38;18.30;;;8.60;60.00;;;;;;5053416;28;20101;-75
2020/12/13 07:31:24;;;;;;;29.25;17.23;;;8.50;59.90;;;;;;5052197;28;20446;-75
2020/12/13 07:33:51;;;;;;;29.63;17.98;;;8.60;60.00;;;;;;5052837;28;20104;-75
2020/12/13 07:36:17;;;;;;;31.95;19.15;;;8.60;60.10;;;;;;5052036;28;20021;-75
2020/12/13 07:38:44;;;;;;;33.10;21.52;;;8.60;60.10;;;;;;5052084;28;20359;-75
2020/12/13 07:41:16;;;;;;;30.95;19.20;;;8.60;60.20;;;;;;5053267;28;20021;-75
2020/12/13 07:44:00;;;;;;;32.53;18.38;;;8.60;60.10;;;;;;5051992;28;20029;-75
2020/12/13 07:46:29;;;;;;;33.65;19.80;;;8.60;60.30;;;;;;5052011;28;20052;-75
2020/12/13 07:49:21;;;;;;;37.70;20.13;;;8.60;60.40;;;;;;5053115;28;20025;-75
2020/12/13 07:51:49;;;;;;;44.35;24.52;;;8.60;60.40;;;;;;5068448;28;20037;-75
2020/12/13 07:54:22;;;;;;;36.80;22.63;;;8.60;60.40;;;;;;5051895;28;20079;-75
2020/12/13 07:56:52;;;;;;;37.80;21.88;;;8.60;60.50;;;;;;5053265;28;20028;-75
2020/12/13 07:59:20;;;;;;;37.42;20.80;;;8.60;60.60;;;;;;5053143;28;20025;-75
2020/12/13 08:01:53;;;;;;;37.63;22.00;;;8.60;60.60;;;;;;5053199;28;20025;-76
2020/12/13 08:04:36;;;;;;;34.70;20.70;;;8.60;60.70;;;;;;5051906;28;20033;-75
2020/12/13 08:07:08;;;;;;;38.88;23.25;;;8.60;60.70;;;;;;5053044;28;20075;-75
2020/12/13 08:09:34;;;;;;;36.08;20.75;;;8.60;60.60;;;;;;5052973;28;20087;-75
2020/12/13 08:12:00;;;;;;;35.65;20.63;;;8.60;60.50;;;;;;5053264;28;20029;-75
2020/12/13 08:14:26;;;;;;;29.15;17.70;;;8.60;60.50;;;;;;5053164;28;20378;-75
2020/12/13 08:16:54;;;;;;;35.22;21.00;;;8.60;60.60;;;;;;5052896;28;20532;-75
2020/12/13 08:19:28;;;;;;;35.08;20.48;;;8.70;60.70;;;;;;5052888;28;20104;-75
2020/12/13 08:22:01;;;;;;;32.67;20.15;;;8.70;60.70;;;;;;5051478;28;20021;-75
2020/12/13 08:24:31;;;;;;;39.13;23.17;;;8.70;60.80;;;;;;5053045;28;20045;-75
2020/12/13 08:27:01;;;;;;;38.78;22.30;;;8.80;60.60;;;;;;5053137;28;20025;-75
2020/12/13 08:29:33;;;;;;;37.38;21.58;;;8.70;60.60;;;;;;5052910;28;20021;-75
2020/12/13 08:32:00;;;;;;;35.08;21.30;;;8.80;60.60;;;;;;5052791;28;20104;-75
2020/12/13 08:34:31;;;;;;;37.00;21.52;;;8.80;60.60;;;;;;5052606;28;20025;-75
2020/12/13 08:36:59;;;;;;;33.50;19.38;;;8.90;60.70;;;;;;5052635;28;20017;-75
2020/12/13 08:39:30;;;;;;;33.35;19.40;;;8.90;60.50;;;;;;5052588;28;20108;-75
2020/12/13 08:41:59;;;;;;;34.00;20.60;;;8.90;60.50;;;;;;5052836;28;20021;-75
2020/12/13 08:44:40;;;;;;;34.72;21.27;;;9.00;60.60;;;;;;5052656;28;20028;-75
2020/12/13 08:47:08;;;;;;;37.65;22.15;;;9.00;60.10;;;;;;5056411;28;20083;-75
2020/12/13 08:49:36;;;;;;;36.30;20.20;;;9.00;60.00;;;;;;5056247;28;20429;-74
2020/12/13 08:52:14;;;;;;;31.40;18.63;;;9.00;60.00;;;;;;5056219;28;20052;-74
2020/12/13 08:54:54;;;;;;;36.60;20.67;;;9.00;60.00;;;;;;5056073;28;20482;-75
2020/12/13 08:57:36;;;;;;;42.92;24.17;;;9.10;60.10;;;;;;5054900;28;20033;-75
2020/12/13 09:00:09;;;;;;;52.33;27.80;;;9.10;59.90;;;;;;5056097;28;20025;-74
2020/12/13 09:02:36;;;;;;;41.97;22.73;;;9.10;59.90;;;;;;5055910;28;20017;-74
2020/12/13 09:05:04;;;;;;;39.67;22.15;;;9.20;60.00;;;;;;5055749;28;20039;-74
2020/12/13 09:07:32;;;;;;;32.70;19.30;;;9.20;59.90;;;;;;5054649;28;20067;-74
2020/12/13 09:10:14;;;;;;;31.90;19.30;;;9.20;59.90;;;;;;5055816;28;20055;-74
2020/12/13 09:12:41;;;;;;;32.45;18.58;;;9.20;59.90;;;;;;5056983;28;20050;-74
2020/12/13 09:15:18;;;;;;;33.10;19.02;;;9.30;59.90;;;;;;5060692;28;20585;-75
2020/12/13 09:18:02;;;;;;;33.83;20.50;;;9.30;59.80;;;;;;5055209;28;20021;-75
2020/12/13 09:20:34;;;;;;;42.92;25.77;;;9.30;59.80;;;;;;5054763;28;20040;-74
2020/12/13 09:23:07;;;;;;;28.95;18.02;;;9.30;59.70;;;;;;5054505;28;20037;-75
2020/12/13 09:25:43;;;;;;;25.30;16.73;;;9.30;59.60;;;;;;5054995;28;20045;-75
2020/12/13 09:28:12;;;;;;;30.58;17.80;;;9.40;59.70;;;;;;5053932;28;20037;-75
2020/12/13 09:30:39;;;;;;;27.08;17.52;;;9.40;59.70;;;;;;5051311;28;20029;-75
2020/12/13 09:33:05;;;;;;;36.65;20.05;;;9.40;59.60;;;;;;5055406;28;20110;-75
2020/12/13 09:35:32;;;;;;;35.63;20.60;;;9.40;59.60;;;;;;5055385;28;20021;-75
2020/12/13 09:37:59;;;;;;;31.63;19.73;;;9.40;59.60;;;;;;5052770;28;20021;-75
2020/12/13 09:40:25;;;;;;;32.10;18.80;;;9.40;59.60;;;;;;5050564;28;20047;-75
2020/12/13 09:42:52;;;;;;;26.85;16.38;;;9.50;59.50;;;;;;5065362;28;20513;-75
2020/12/13 09:45:18;;;;;;;23.73;15.15;;;9.50;59.50;;;;;;5055064;28;20020;-74
2020/12/13 09:47:43;;;;;;;22.80;15.45;;;9.60;59.40;;;;;;5054995;28;20466;-75
2020/12/13 09:50:09;;;;;;;23.20;14.95;;;9.60;59.30;;;;;;5054262;28;20039;-75
2020/12/13 09:52:35;;;;;;;36.13;20.30;;;9.70;59.50;;;;;;5063057;28;20021;-75
2020/12/13 09:55:02;;;;;;;30.02;18.88;;;9.70;59.10;;;;;;5055542;28;20574;-75
2020/12/13 09:57:28;;;;;;;30.25;18.98;;;9.80;58.90;;;;;;5069105;28;20040;-75
2020/12/13 09:59:54;;;;;;;29.92;18.60;;;9.80;58.70;;;;;;5054080;28;20070;-75
2020/12/13 10:02:20;;;;;;;31.65;18.80;;;9.80;58.70;;;;;;5054287;28;20033;-75
2020/12/13 10:04:46;;;;;;;29.70;17.95;;;9.80;58.80;;;;;;5054274;28;20063;-75
2020/12/13 10:09:37;;;;;;;33.10;19.45;;;9.80;58.90;;;;;;5054226;28;20037;-75
2020/12/13 10:12:03;;;;;;;30.80;19.85;;;9.90;58.90;;;;;;5053612;28;20033;-75
2020/12/13 10:14:29;;;;;;;30.45;18.25;;;9.90;58.80;;;;;;5072270;28;20037;-75
2020/12/13 10:16:55;;;;;;;37.97;22.20;;;10.00;58.90;;;;;;5073746;28;20496;-75
2020/12/13 10:19:21;;;;;;;35.50;21.10;;;9.90;58.80;;;;;;5067621;28;20335;-75
2020/12/13 10:21:48;;;;;;;26.05;17.73;;;10.00;58.60;;;;;;5053668;28;20021;-75
2020/12/13 10:24:14;;;;;;;28.38;17.95;;;10.00;58.50;;;;;;5052163;28;20455;-75
2020/12/13 10:26:41;;;;;;;28.27;18.17;;;10.00;58.30;;;;;;5053735;28;20112;-75
2020/12/13 10:29:07;;;;;;;28.75;19.30;;;9.90;58.40;;;;;;5061055;28;20059;-75
2020/12/13 10:31:46;;;;;;;27.40;17.20;;;9.90;58.50;;;;;;5060262;28;20029;-75
2020/12/13 10:34:12;;;;;;;30.08;19.50;;;9.80;58.60;;;;;;5033414;28;20029;-75
2020/12/13 10:36:39;;;;;;;33.25;20.60;;;9.90;58.80;;;;;;5033364;28;20028;-74
2020/12/13 10:39:07;;;;;;;31.35;19.42;;;9.80;58.90;;;;;;5032265;28;20025;-75
2020/12/13 10:41:33;;;;;;;35.88;20.67;;;9.80;58.90;;;;;;5032137;28;20029;-75
2020/12/13 10:43:59;;;;;;;36.55;22.35;;;9.70;58.90;;;;;;5051860;28;21303;-74
2020/12/13 10:46:26;;;;;;;35.65;22.50;;;9.70;58.90;;;;;;5053887;28;20470;-75
2020/12/13 10:48:52;;;;;;;37.22;23.58;;;9.70;59.00;;;;;;5053040;28;20055;-75
2020/12/13 10:51:19;;;;;;;33.92;21.63;;;9.70;59.00;;;;;;5051755;28;20024;-75
2020/12/13 10:53:47;;;;;;;36.88;23.90;;;9.60;59.10;;;;;;5051643;28;20078;-75
2020/12/13 10:56:15;;;;;;;35.55;21.27;;;9.70;59.10;;;;;;5051753;28;20054;-75
2020/12/13 10:58:45;;;;;;;38.25;21.65;;;9.60;59.10;;;;;;5052026;28;20025;-75
2020/12/13 11:01:12;;;;;;;38.83;22.92;;;9.60;59.20;;;;;;5050834;28;20104;-75
2020/12/13 11:03:38;;;;;;;38.40;22.95;;;9.60;59.20;;;;;;5051123;28;20382;-74
2020/12/13 11:06:06;;;;;;;39.15;23.98;;;9.50;59.20;;;;;;5052431;28;20486;-75
2020/12/13 11:08:32;;;;;;;49.45;26.13;;;9.50;59.40;;;;;;5050241;28;20040;-75
2020/12/13 11:10:58;;;;;;;42.47;24.77;;;9.50;59.40;;;;;;5052569;28;20497;-75
2020/12/13 11:13:24;;;;;;;42.03;24.80;;;9.40;59.50;;;;;;5052667;28;20060;-75
2020/12/13 11:15:50;;;;;;;42.88;24.48;;;9.40;59.70;;;;;;5052762;28;20422;-75
2020/12/13 11:18:16;;;;;;;41.53;24.88;;;9.40;59.90;;;;;;5052581;28;20060;-75
2020/12/13 11:20:42;;;;;;;47.15;27.48;;;9.40;60.00;;;;;;5051903;28;20048;-75
2020/12/13 11:23:09;;;;;;;50.58;27.95;;;9.30;60.10;;;;;;5053695;28;20028;-75
2020/12/13 11:25:34;;;;;;;47.45;25.95;;;9.30;60.20;;;;;;5057533;28;20675;-75
2020/12/13 11:28:02;;;;;;;49.60;26.02;;;9.20;60.40;;;;;;5069895;28;20142;-75
2020/12/13 11:30:27;;;;;;;48.42;26.77;;;9.20;60.60;;;;;;5051075;28;20028;-75
2020/12/13 11:32:53;;;;;;;46.13;26.42;;;9.20;60.70;;;;;;5052870;28;20371;-75
2020/12/13 11:35:19;;;;;;;48.03;27.52;;;9.20;60.90;;;;;;5054594;28;20128;-75
2020/12/13 11:37:45;;;;;;;49.00;27.00;;;9.20;61.10;;;;;;5071215;28;20466;-75
2020/12/13 11:40:11;;;;;;;51.63;26.48;;;9.20;61.10;;;;;;5062678;28;20033;-75
2020/12/13 11:42:37;;;;;;;54.22;27.67;;;9.10;61.20;;;;;;5048470;28;20132;-75
2020/12/13 11:45:04;;;;;;;49.17;25.63;;;9.20;61.50;;;;;;5048247;28;20096;-75
2020/12/13 11:47:30;;;;;;;51.35;27.10;;;9.20;61.40;;;;;;5052880;28;20025;-75
2020/12/13 11:49:56;;;;;;;49.78;27.45;;;9.20;61.40;;;;;;5051768;28;20437;-75
2020/12/13 11:52:22;;;;;;;51.25;27.40;;;9.20;61.30;;;;;;5052552;28;20421;-74
2020/12/13 11:54:47;;;;;;;44.47;26.23;;;9.30;61.30;;;;;;5053148;28;20029;-75
2020/12/13 11:57:14;;;;;;;46.97;26.05;;;9.30;61.30;;;;;;5053017;28;20123;-75
2020/12/13 11:59:39;;;;;;;46.80;26.17;;;9.40;61.40;;;;;;5052964;28;20367;-75
2020/12/13 12:02:06;;;;;;;49.00;26.75;;;9.40;61.30;;;;;;5052922;28;20021;-75
2020/12/13 12:04:32;;;;;;;45.17;25.55;;;9.50;61.10;;;;;;5055969;28;20070;-75
2020/12/13 12:06:57;;;;;;;48.83;26.55;;;9.60;61.00;;;;;;5044589;28;20025;-75
2020/12/13 12:09:23;;;;;;;49.10;27.17;;;9.60;60.90;;;;;;5033146;28;20078;-75
2020/12/13 12:11:49;;;;;;;45.72;25.98;;;9.70;60.80;;;;;;5048760;28;20025;-74
2020/12/13 12:14:15;;;;;;;49.40;27.38;;;9.80;60.70;;;;;;5053155;28;20029;-74
2020/12/13 12:16:43;;;;;;;46.75;25.90;;;9.80;60.40;;;;;;5052951;28;20024;-75
2020/12/13 12:19:10;;;;;;;50.97;26.92;;;9.90;60.20;;;;;;5048564;28;20482;-75
2020/12/13 12:21:36;;;;;;;47.65;25.13;;;9.90;60.00;;;;;;5055528;28;20061;-75
2020/12/13 12:24:05;;;;;;;49.17;28.00;;;9.90;59.80;;;;;;5056513;28;20045;-75
2020/12/13 12:26:33;;;;;;;52.35;27.13;;;9.90;59.70;;;;;;5057090;28;20028;-75
2020/12/13 12:29:00;;;;;;;44.55;24.17;;;10.00;59.70;;;;;;5056631;28;20087;-75
2020/12/13 12:31:26;;;;;;;43.97;24.92;;;10.00;59.70;;;;;;5056630;28;20417;-74
2020/12/13 12:33:53;;;;;;;45.47;24.85;;;10.00;59.70;;;;;;5052337;28;20029;-75
2020/12/13 12:36:21;;;;;;;51.97;27.02;;;10.10;59.70;;;;;;5056508;28;20029;-75
2020/12/13 12:38:48;;;;;;;44.92;24.73;;;10.10;59.60;;;;;;5045525;28;20048;-75
2020/12/13 12:41:16;;;;;;;45.35;24.55;;;10.10;60.00;;;;;;5054642;28;20015;-75
2020/12/13 12:43:42;;;;;;;41.47;24.23;;;10.10;59.40;;;;;;5057149;28;20463;-75
2020/12/13 12:46:09;;;;;;;52.40;26.55;;;10.10;59.20;;;;;;5063463;28;20454;-75
2020/12/13 12:48:35;;;;;;;49.65;26.10;;;10.10;59.40;;;;;;5076222;28;20031;-75
2020/12/13 12:51:05;;;;;;;49.50;27.00;;;10.10;59.40;;;;;;5075065;28;20025;-75